sensor_id;sensor_type;location;lat;lon;timestamp;temperature;humidity
48860;DHT22;34679;51.436;-2.518;2024-03-23T03:30:28;5.60;99.90
48860;DHT22;34679;51.436;-2.518;2024-03-23T03:32:54;5.60;99.90
48860;DHT22;34679;51.436;-2.518;2024-03-23T03:35:20;5.50;99.90
48860;DHT22;34679;51.436;-2.518;2024-03-23T03:37:46;5.50;99.90
48860;DHT22;34679;51.436;-2.518;2024-03-23T03:40:12;5.10;99.90
48860;DHT22;34679;51.436;-2.518;2024-03-23T03:42:40;4.50;99.90
48860;DHT22;34679;51.436;-2.518;2024-03-23T03:45:06;5.40;99.90
48860;DHT22;34679;51.436;-2.518;2024-03-23T03:47:32;3.30;99.90
48860;DHT22;34679;51.436;-2.518;2024-03-23T03:49:58;5.50;99.90
48860;DHT22;34679;51.436;-2.518;2024-03-23T03:52:24;5.90;99.90
48860;DHT22;34679;51.436;-2.518;2024-03-23T03:54:50;5.00;99.90
48860;DHT22;34679;51.436;-2.518;2024-03-23T03:58:37;5.10;99.90
48860;DHT22;34679;51.436;-2.518;2024-03-23T04:04:45;5.60;99.90
48860;DHT22;34679;51.436;-2.518;2024-03-23T04:07:42;5.60;99.90
48860;DHT22;34679;51.436;-2.518;2024-03-23T05:59:47;7.10;99.90
48860;DHT22;34679;51.436;-2.518;2024-03-23T06:02:13;5.20;99.90
48860;DHT22;34679;51.436;-2.518;2024-03-23T06:04:39;5.40;99.90
48860;DHT22;34679;51.436;-2.518;2024-03-23T06:07:05;6.20;99.90
48860;DHT22;34679;51.436;-2.518;2024-03-23T06:09:42;5.70;99.90
48860;DHT22;34679;51.436;-2.518;2024-03-23T06:27:40;5.90;99.90
48860;DHT22;34679;51.436;-2.518;2024-03-23T06:30:06;6.00;99.90
48860;DHT22;34679;51.436;-2.518;2024-03-23T06:32:32;5.80;99.90
48860;DHT22;34679;51.436;-2.518;2024-03-23T06:34:58;5.60;99.90
48860;DHT22;34679;51.436;-2.518;2024-03-23T06:37:25;4.90;99.90
48860;DHT22;34679;51.436;-2.518;2024-03-23T06:39:51;5.40;99.90
48860;DHT22;34679;51.436;-2.518;2024-03-23T06:42:17;6.40;99.90
48860;DHT22;34679;51.436;-2.518;2024-03-23T06:44:43;7.00;99.90
48860;DHT22;34679;51.436;-2.518;2024-03-23T06:47:09;7.30;99.90
48860;DHT22;34679;51.436;-2.518;2024-03-23T06:49:34;7.40;99.90
48860;DHT22;34679;51.436;-2.518;2024-03-23T06:52:00;7.80;99.90
48860;DHT22;34679;51.436;-2.518;2024-03-23T06:54:26;7.90;99.90
48860;DHT22;34679;51.436;-2.518;2024-03-23T06:56:52;8.00;99.90
48860;DHT22;34679;51.436;-2.518;2024-03-23T06:59:17;8.40;99.90
48860;DHT22;34679;51.436;-2.518;2024-03-23T07:01:43;8.70;99.90
48860;DHT22;34679;51.436;-2.518;2024-03-23T07:04:08;8.90;99.90
48860;DHT22;34679;51.436;-2.518;2024-03-23T07:06:34;8.80;99.90
48860;DHT22;34679;51.436;-2.518;2024-03-23T07:09:07;8.80;99.90
48860;DHT22;34679;51.436;-2.518;2024-03-23T07:11:33;8.90;99.90
48860;DHT22;34679;51.436;-2.518;2024-03-23T07:13:58;9.50;99.90
48860;DHT22;34679;51.436;-2.518;2024-03-23T07:16:26;9.80;99.90
48860;DHT22;34679;51.436;-2.518;2024-03-23T07:18:52;9.40;99.90
48860;DHT22;34679;51.436;-2.518;2024-03-23T07:21:18;9.20;99.90
48860;DHT22;34679;51.436;-2.518;2024-03-23T07:23:43;8.90;99.90
48860;DHT22;34679;51.436;-2.518;2024-03-23T07:26:12;8.70;99.90
48860;DHT22;34679;51.436;-2.518;2024-03-23T07:28:38;9.40;99.90
48860;DHT22;34679;51.436;-2.518;2024-03-23T07:31:09;10.00;99.90
48860;DHT22;34679;51.436;-2.518;2024-03-23T07:33:37;10.40;99.90
48860;DHT22;34679;51.436;-2.518;2024-03-23T07:36:03;10.60;99.90
48860;DHT22;34679;51.436;-2.518;2024-03-23T07:38:29;10.70;99.90
48860;DHT22;34679;51.436;-2.518;2024-03-23T07:41:31;10.50;99.90
48860;DHT22;34679;51.436;-2.518;2024-03-23T07:43:56;10.40;99.90
48860;DHT22;34679;51.436;-2.518;2024-03-23T07:46:22;10.60;99.90
48860;DHT22;34679;51.436;-2.518;2024-03-23T07:48:48;10.70;99.90
48860;DHT22;34679;51.436;-2.518;2024-03-23T07:51:21;10.90;99.90
48860;DHT22;34679;51.436;-2.518;2024-03-23T07:53:48;11.10;99.90
48860;DHT22;34679;51.436;-2.518;2024-03-23T07:56:17;11.20;99.90
48860;DHT22;34679;51.436;-2.518;2024-03-23T07:58:44;10.60;99.90
48860;DHT22;34679;51.436;-2.518;2024-03-23T08:01:14;10.80;99.90
48860;DHT22;34679;51.436;-2.518;2024-03-23T08:03:45;10.90;99.90
48860;DHT22;34679;51.436;-2.518;2024-03-23T08:06:13;10.80;99.90
48860;DHT22;34679;51.436;-2.518;2024-03-23T08:08:40;11.10;99.90
48860;DHT22;34679;51.436;-2.518;2024-03-23T08:11:06;11.20;99.90
48860;DHT22;34679;51.436;-2.518;2024-03-23T08:13:33;11.60;99.90
48860;DHT22;34679;51.436;-2.518;2024-03-23T08:16:03;12.10;99.90
48860;DHT22;34679;51.436;-2.518;2024-03-23T08:18:29;11.90;99.90
48860;DHT22;34679;51.436;-2.518;2024-03-23T08:21:05;12.10;99.90
48860;DHT22;34679;51.436;-2.518;2024-03-23T08:23:32;11.90;99.90
48860;DHT22;34679;51.436;-2.518;2024-03-23T08:26:10;11.70;99.90
48860;DHT22;34679;51.436;-2.518;2024-03-23T08:28:36;11.20;99.90
48860;DHT22;34679;51.436;-2.518;2024-03-23T08:31:04;10.50;99.90
48860;DHT22;34679;51.436;-2.518;2024-03-23T08:33:30;10.10;99.90
48860;DHT22;34679;51.436;-2.518;2024-03-23T08:36:01;9.90;99.90
48860;DHT22;34679;51.436;-2.518;2024-03-23T08:38:28;10.00;99.90
48860;DHT22;34679;51.436;-2.518;2024-03-23T08:41:01;10.90;99.90
48860;DHT22;34679;51.436;-2.518;2024-03-23T08:43:38;11.20;99.90
48860;DHT22;34679;51.436;-2.518;2024-03-23T08:48:35;11.50;99.90
48860;DHT22;34679;51.436;-2.518;2024-03-23T08:51:06;11.60;99.90
48860;DHT22;34679;51.436;-2.518;2024-03-23T08:53:32;11.20;99.90
48860;DHT22;34679;51.436;-2.518;2024-03-23T08:56:00;11.70;99.90
48860;DHT22;34679;51.436;-2.518;2024-03-23T08:58:27;12.40;99.90
48860;DHT22;34679;51.436;-2.518;2024-03-23T09:00:54;12.00;99.90
48860;DHT22;34679;51.436;-2.518;2024-03-23T09:03:25;12.20;99.90
48860;DHT22;34679;51.436;-2.518;2024-03-23T09:05:51;12.30;99.90
48860;DHT22;34679;51.436;-2.518;2024-03-23T09:08:18;12.90;99.90
48860;DHT22;34679;51.436;-2.518;2024-03-23T09:10:44;13.40;99.90
48860;DHT22;34679;51.436;-2.518;2024-03-23T09:13:09;12.80;99.90
48860;DHT22;34679;51.436;-2.518;2024-03-23T09:15:37;13.10;99.90
48860;DHT22;34679;51.436;-2.518;2024-03-23T09:18:03;12.70;99.90
48860;DHT22;34679;51.436;-2.518;2024-03-23T09:20:32;12.60;99.90
48860;DHT22;34679;51.436;-2.518;2024-03-23T09:22:58;12.50;99.90
48860;DHT22;34679;51.436;-2.518;2024-03-23T09:25:24;12.20;99.90
48860;DHT22;34679;51.436;-2.518;2024-03-23T09:27:50;12.30;99.90
48860;DHT22;34679;51.436;-2.518;2024-03-23T09:30:16;12.80;99.90
48860;DHT22;34679;51.436;-2.518;2024-03-23T09:32:43;13.30;99.90
48860;DHT22;34679;51.436;-2.518;2024-03-23T09:35:09;13.80;99.90
48860;DHT22;34679;51.436;-2.518;2024-03-23T09:37:36;13.80;99.90
48860;DHT22;34679;51.436;-2.518;2024-03-23T09:40:01;13.10;99.90
48860;DHT22;34679;51.436;-2.518;2024-03-23T09:42:28;12.70;99.90
48860;DHT22;34679;51.436;-2.518;2024-03-23T09:44:54;12.20;99.90
48860;DHT22;34679;51.436;-2.518;2024-03-23T09:47:23;11.50;99.90
48860;DHT22;34679;51.436;-2.518;2024-03-23T09:49:50;10.90;99.90
48860;DHT22;34679;51.436;-2.518;2024-03-23T09:52:16;10.80;99.90
48860;DHT22;34679;51.436;-2.518;2024-03-23T09:54:42;10.70;99.90
48860;DHT22;34679;51.436;-2.518;2024-03-23T09:57:08;10.60;99.90
48860;DHT22;34679;51.436;-2.518;2024-03-23T09:59:34;11.10;99.90
48860;DHT22;34679;51.436;-2.518;2024-03-23T10:02:01;11.60;99.90
48860;DHT22;34679;51.436;-2.518;2024-03-23T10:04:40;11.20;99.90
48860;DHT22;34679;51.436;-2.518;2024-03-23T10:07:19;10.90;99.90
48860;DHT22;34679;51.436;-2.518;2024-03-23T10:09:45;10.40;99.90
48860;DHT22;34679;51.436;-2.518;2024-03-23T10:12:15;10.00;99.90
48860;DHT22;34679;51.436;-2.518;2024-03-23T10:14:42;10.10;99.90
48860;DHT22;34679;51.436;-2.518;2024-03-23T10:17:18;10.30;99.90
48860;DHT22;34679;51.436;-2.518;2024-03-23T10:19:49;10.60;99.90
48860;DHT22;34679;51.436;-2.518;2024-03-23T10:22:24;10.60;99.90
48860;DHT22;34679;51.436;-2.518;2024-03-23T10:24:50;10.70;99.90
48860;DHT22;34679;51.436;-2.518;2024-03-23T10:27:20;10.90;99.90
48860;DHT22;34679;51.436;-2.518;2024-03-23T10:29:46;10.90;99.90
48860;DHT22;34679;51.436;-2.518;2024-03-23T10:32:14;11.00;99.90
48860;DHT22;34679;51.436;-2.518;2024-03-23T10:34:40;11.20;99.90
48860;DHT22;34679;51.436;-2.518;2024-03-23T10:37:06;11.60;99.90
48860;DHT22;34679;51.436;-2.518;2024-03-23T10:39:40;11.30;99.90
48860;DHT22;34679;51.436;-2.518;2024-03-23T10:42:08;11.20;99.90
48860;DHT22;34679;51.436;-2.518;2024-03-23T10:44:34;10.90;99.90
48860;DHT22;34679;51.436;-2.518;2024-03-23T10:47:04;10.60;99.90
48860;DHT22;34679;51.436;-2.518;2024-03-23T10:49:34;10.30;99.90
48860;DHT22;34679;51.436;-2.518;2024-03-23T10:52:04;10.10;99.90
48860;DHT22;34679;51.436;-2.518;2024-03-23T10:54:31;9.90;99.90
48860;DHT22;34679;51.436;-2.518;2024-03-23T10:57:08;10.00;99.90
48860;DHT22;34679;51.436;-2.518;2024-03-23T10:59:37;9.80;99.90
48860;DHT22;34679;51.436;-2.518;2024-03-23T11:02:03;9.60;99.90
48860;DHT22;34679;51.436;-2.518;2024-03-23T11:04:30;9.50;99.90
48860;DHT22;34679;51.436;-2.518;2024-03-23T11:10:29;8.10;99.90
48860;DHT22;34679;51.436;-2.518;2024-03-23T11:13:22;7.60;99.90
48860;DHT22;34679;51.436;-2.518;2024-03-23T11:15:50;7.50;99.90
48860;DHT22;34679;51.436;-2.518;2024-03-23T11:18:20;7.60;99.90
48860;DHT22;34679;51.436;-2.518;2024-03-23T11:20:46;7.90;99.90
48860;DHT22;34679;51.436;-2.518;2024-03-23T11:23:28;8.20;99.90
48860;DHT22;34679;51.436;-2.518;2024-03-23T11:25:54;8.60;99.90
48860;DHT22;34679;51.436;-2.518;2024-03-23T11:28:19;8.90;99.90
48860;DHT22;34679;51.436;-2.518;2024-03-23T11:30:45;9.10;99.90
48860;DHT22;34679;51.436;-2.518;2024-03-23T11:33:12;9.30;99.90
48860;DHT22;34679;51.436;-2.518;2024-03-23T11:35:39;9.50;99.90
48860;DHT22;34679;51.436;-2.518;2024-03-23T11:38:09;9.70;99.90
48860;DHT22;34679;51.436;-2.518;2024-03-23T11:40:37;9.60;99.90
48860;DHT22;34679;51.436;-2.518;2024-03-23T11:43:04;9.80;99.90
48860;DHT22;34679;51.436;-2.518;2024-03-23T11:45:35;10.20;99.90
48860;DHT22;34679;51.436;-2.518;2024-03-23T11:48:05;10.50;99.90
48860;DHT22;34679;51.436;-2.518;2024-03-23T11:50:32;10.20;99.90
48860;DHT22;34679;51.436;-2.518;2024-03-23T11:53:22;10.40;99.90
48860;DHT22;34679;51.436;-2.518;2024-03-23T11:55:59;10.30;99.90
48860;DHT22;34679;51.436;-2.518;2024-03-23T11:58:27;10.30;99.90
48860;DHT22;34679;51.436;-2.518;2024-03-23T12:01:03;10.60;99.90
48860;DHT22;34679;51.436;-2.518;2024-03-23T12:03:31;10.80;99.90
48860;DHT22;34679;51.436;-2.518;2024-03-23T12:05:59;10.70;99.90
48860;DHT22;34679;51.436;-2.518;2024-03-23T12:08:36;10.70;99.90
48860;DHT22;34679;51.436;-2.518;2024-03-23T12:11:15;10.50;99.90
48860;DHT22;34679;51.436;-2.518;2024-03-23T12:13:42;10.30;99.90
48860;DHT22;34679;51.436;-2.518;2024-03-23T12:16:29;10.20;99.90
48860;DHT22;34679;51.436;-2.518;2024-03-23T12:19:05;10.30;99.90
48860;DHT22;34679;51.436;-2.518;2024-03-23T12:21:31;10.30;99.90
48860;DHT22;34679;51.436;-2.518;2024-03-23T12:23:56;10.30;99.90
48860;DHT22;34679;51.436;-2.518;2024-03-23T12:26:24;10.10;99.90
48860;DHT22;34679;51.436;-2.518;2024-03-23T12:28:49;10.00;99.90
48860;DHT22;34679;51.436;-2.518;2024-03-23T12:31:15;10.00;99.90
48860;DHT22;34679;51.436;-2.518;2024-03-23T12:33:41;10.10;99.90
48860;DHT22;34679;51.436;-2.518;2024-03-23T12:36:06;10.10;99.90
48860;DHT22;34679;51.436;-2.518;2024-03-23T12:38:32;10.20;99.90
48860;DHT22;34679;51.436;-2.518;2024-03-23T12:40:57;10.20;99.90
48860;DHT22;34679;51.436;-2.518;2024-03-23T12:43:23;10.20;99.90
48860;DHT22;34679;51.436;-2.518;2024-03-23T12:45:50;10.00;99.90
48860;DHT22;34679;51.436;-2.518;2024-03-23T12:48:19;10.00;99.90
48860;DHT22;34679;51.436;-2.518;2024-03-23T12:50:44;9.80;99.90
48860;DHT22;34679;51.436;-2.518;2024-03-23T12:53:10;9.70;99.90
48860;DHT22;34679;51.436;-2.518;2024-03-23T12:55:35;9.70;99.90
48860;DHT22;34679;51.436;-2.518;2024-03-23T12:58:01;9.70;99.90
48860;DHT22;34679;51.436;-2.518;2024-03-23T13:00:27;9.80;99.90
48860;DHT22;34679;51.436;-2.518;2024-03-23T13:02:53;10.10;99.90
48860;DHT22;34679;51.436;-2.518;2024-03-23T13:05:18;10.30;99.90
48860;DHT22;34679;51.436;-2.518;2024-03-23T13:07:44;10.50;99.90
48860;DHT22;34679;51.436;-2.518;2024-03-23T13:10:10;10.70;99.90
48860;DHT22;34679;51.436;-2.518;2024-03-23T13:12:35;10.70;99.90
48860;DHT22;34679;51.436;-2.518;2024-03-23T13:15:01;10.60;99.90
48860;DHT22;34679;51.436;-2.518;2024-03-23T13:17:27;10.50;99.90
48860;DHT22;34679;51.436;-2.518;2024-03-23T13:19:54;10.50;99.90
48860;DHT22;34679;51.436;-2.518;2024-03-23T13:22:21;10.50;99.90
48860;DHT22;34679;51.436;-2.518;2024-03-23T13:24:46;10.40;99.90
48860;DHT22;34679;51.436;-2.518;2024-03-23T13:27:12;10.40;99.90
48860;DHT22;34679;51.436;-2.518;2024-03-23T13:29:37;10.50;99.90
48860;DHT22;34679;51.436;-2.518;2024-03-23T13:32:04;10.70;99.90
48860;DHT22;34679;51.436;-2.518;2024-03-23T13:34:30;11.10;99.90
48860;DHT22;34679;51.436;-2.518;2024-03-23T13:36:56;11.60;99.90
48860;DHT22;34679;51.436;-2.518;2024-03-23T13:39:23;12.10;99.90
48860;DHT22;34679;51.436;-2.518;2024-03-23T13:41:49;11.80;99.90
48860;DHT22;34679;51.436;-2.518;2024-03-23T13:44:15;11.40;99.90
48860;DHT22;34679;51.436;-2.518;2024-03-23T13:46:42;11.20;99.90
48860;DHT22;34679;51.436;-2.518;2024-03-23T13:49:19;11.10;99.90
48860;DHT22;34679;51.436;-2.518;2024-03-23T13:51:49;11.00;99.90
48860;DHT22;34679;51.436;-2.518;2024-03-23T13:54:15;10.80;99.90
48860;DHT22;34679;51.436;-2.518;2024-03-23T13:56:41;10.90;99.90
48860;DHT22;34679;51.436;-2.518;2024-03-23T13:59:06;10.90;99.90
48860;DHT22;34679;51.436;-2.518;2024-03-23T14:01:32;10.80;99.90
48860;DHT22;34679;51.436;-2.518;2024-03-23T14:03:58;10.80;99.90
48860;DHT22;34679;51.436;-2.518;2024-03-23T14:06:24;10.90;99.90
48860;DHT22;34679;51.436;-2.518;2024-03-23T14:08:49;11.10;99.90
48860;DHT22;34679;51.436;-2.518;2024-03-23T14:11:20;10.90;99.90
48860;DHT22;34679;51.436;-2.518;2024-03-23T14:13:46;10.60;99.90
48860;DHT22;34679;51.436;-2.518;2024-03-23T14:16:11;10.00;99.90
48860;DHT22;34679;51.436;-2.518;2024-03-23T14:18:37;9.60;99.90
48860;DHT22;34679;51.436;-2.518;2024-03-23T14:21:03;9.80;99.90
48860;DHT22;34679;51.436;-2.518;2024-03-23T14:23:31;10.20;99.90
48860;DHT22;34679;51.436;-2.518;2024-03-23T14:26:00;10.40;99.90
48860;DHT22;34679;51.436;-2.518;2024-03-23T14:28:25;10.50;99.90
48860;DHT22;34679;51.436;-2.518;2024-03-23T14:30:52;10.60;99.90
48860;DHT22;34679;51.436;-2.518;2024-03-23T14:33:20;10.80;99.90
48860;DHT22;34679;51.436;-2.518;2024-03-23T14:35:55;10.90;99.90
48860;DHT22;34679;51.436;-2.518;2024-03-23T14:38:22;11.00;99.90
48860;DHT22;34679;51.436;-2.518;2024-03-23T14:40:48;10.80;99.90
48860;DHT22;34679;51.436;-2.518;2024-03-23T14:43:14;10.50;99.90
48860;DHT22;34679;51.436;-2.518;2024-03-23T14:46:10;10.20;99.90
48860;DHT22;34679;51.436;-2.518;2024-03-23T14:48:36;10.30;99.90
48860;DHT22;34679;51.436;-2.518;2024-03-23T14:51:03;10.30;99.90
48860;DHT22;34679;51.436;-2.518;2024-03-23T14:53:32;10.50;99.90
48860;DHT22;34679;51.436;-2.518;2024-03-23T14:55:59;10.80;99.90
48860;DHT22;34679;51.436;-2.518;2024-03-23T14:58:26;10.90;99.90
48860;DHT22;34679;51.436;-2.518;2024-03-23T15:00:51;11.20;99.90
48860;DHT22;34679;51.436;-2.518;2024-03-23T15:03:18;11.10;99.90
48860;DHT22;34679;51.436;-2.518;2024-03-23T15:06:04;11.20;99.90
48860;DHT22;34679;51.436;-2.518;2024-03-23T15:08:29;11.40;99.90
48860;DHT22;34679;51.436;-2.518;2024-03-23T15:10:59;11.50;99.90
48860;DHT22;34679;51.436;-2.518;2024-03-23T15:13:26;11.60;99.90
48860;DHT22;34679;51.436;-2.518;2024-03-23T15:15:51;11.60;99.90
48860;DHT22;34679;51.436;-2.518;2024-03-23T15:18:17;11.40;99.90
48860;DHT22;34679;51.436;-2.518;2024-03-23T15:20:58;11.10;99.90
48860;DHT22;34679;51.436;-2.518;2024-03-23T15:23:27;10.90;99.90
48860;DHT22;34679;51.436;-2.518;2024-03-23T15:25:57;11.00;99.90
48860;DHT22;34679;51.436;-2.518;2024-03-23T15:28:23;10.90;99.90
48860;DHT22;34679;51.436;-2.518;2024-03-23T15:30:49;11.00;99.90
48860;DHT22;34679;51.436;-2.518;2024-03-23T15:33:15;11.00;99.90
48860;DHT22;34679;51.436;-2.518;2024-03-23T15:35:40;11.10;99.90
48860;DHT22;34679;51.436;-2.518;2024-03-23T15:38:06;11.20;99.90
48860;DHT22;34679;51.436;-2.518;2024-03-23T15:40:32;11.00;99.90
48860;DHT22;34679;51.436;-2.518;2024-03-23T15:42:57;10.90;99.90
48860;DHT22;34679;51.436;-2.518;2024-03-23T15:45:23;10.80;99.90
48860;DHT22;34679;51.436;-2.518;2024-03-23T15:47:49;10.80;99.90
48860;DHT22;34679;51.436;-2.518;2024-03-23T15:50:15;10.60;99.90
48860;DHT22;34679;51.436;-2.518;2024-03-23T15:52:40;10.60;99.90
48860;DHT22;34679;51.436;-2.518;2024-03-23T15:55:06;10.70;99.90
48860;DHT22;34679;51.436;-2.518;2024-03-23T15:57:35;10.90;99.90
48860;DHT22;34679;51.436;-2.518;2024-03-23T16:00:02;10.90;99.10
48860;DHT22;34679;51.436;-2.518;2024-03-23T16:02:28;11.00;98.90
48860;DHT22;34679;51.436;-2.518;2024-03-23T16:04:54;10.90;99.00
48860;DHT22;34679;51.436;-2.518;2024-03-23T16:07:20;10.90;98.10
48860;DHT22;34679;51.436;-2.518;2024-03-23T16:09:46;10.80;96.90
48860;DHT22;34679;51.436;-2.518;2024-03-23T16:12:12;10.70;97.20
48860;DHT22;34679;51.436;-2.518;2024-03-23T16:14:37;10.70;97.00
48860;DHT22;34679;51.436;-2.518;2024-03-23T16:17:03;10.80;96.70
48860;DHT22;34679;51.436;-2.518;2024-03-23T16:19:29;10.70;97.40
48860;DHT22;34679;51.436;-2.518;2024-03-23T16:21:54;10.50;96.60
48860;DHT22;34679;51.436;-2.518;2024-03-23T16:24:21;10.30;96.80
48860;DHT22;34679;51.436;-2.518;2024-03-23T16:26:47;10.10;97.00
48860;DHT22;34679;51.436;-2.518;2024-03-23T16:29:12;10.10;97.50
48860;DHT22;34679;51.436;-2.518;2024-03-23T16:31:38;10.00;97.50
48860;DHT22;34679;51.436;-2.518;2024-03-23T16:34:04;9.90;97.70
48860;DHT22;34679;51.436;-2.518;2024-03-23T16:36:29;9.90;97.20
48860;DHT22;34679;51.436;-2.518;2024-03-23T16:38:55;9.90;97.20
48860;DHT22;34679;51.436;-2.518;2024-03-23T16:41:21;9.90;97.60
48860;DHT22;34679;51.436;-2.518;2024-03-23T16:43:46;9.90;98.00
48860;DHT22;34679;51.436;-2.518;2024-03-23T16:46:14;10.00;98.00
48860;DHT22;34679;51.436;-2.518;2024-03-23T16:48:42;9.90;98.10
48860;DHT22;34679;51.436;-2.518;2024-03-23T16:51:11;9.90;98.20
48860;DHT22;34679;51.436;-2.518;2024-03-23T16:53:37;9.90;97.60
48860;DHT22;34679;51.436;-2.518;2024-03-23T16:56:06;9.90;97.50
48860;DHT22;34679;51.436;-2.518;2024-03-23T16:58:39;9.80;97.50
48860;DHT22;34679;51.436;-2.518;2024-03-23T17:01:10;9.80;97.50
48860;DHT22;34679;51.436;-2.518;2024-03-23T17:03:51;9.80;97.60
48860;DHT22;34679;51.436;-2.518;2024-03-23T17:06:18;9.80;98.40
48860;DHT22;34679;51.436;-2.518;2024-03-23T17:08:45;9.80;97.80
48860;DHT22;34679;51.436;-2.518;2024-03-23T17:11:14;9.80;97.80
48860;DHT22;34679;51.436;-2.518;2024-03-23T17:13:39;9.80;98.40
48860;DHT22;34679;51.436;-2.518;2024-03-23T17:16:05;9.80;97.90
48860;DHT22;34679;51.436;-2.518;2024-03-23T17:18:32;9.80;97.80
48860;DHT22;34679;51.436;-2.518;2024-03-23T17:20:57;9.80;98.00
48860;DHT22;34679;51.436;-2.518;2024-03-23T17:23:27;9.90;98.20
48860;DHT22;34679;51.436;-2.518;2024-03-23T17:25:53;9.90;98.80
48860;DHT22;34679;51.436;-2.518;2024-03-23T17:28:19;10.00;99.10
48860;DHT22;34679;51.436;-2.518;2024-03-23T17:30:45;10.10;99.20
48860;DHT22;34679;51.436;-2.518;2024-03-23T17:33:15;10.10;99.20
48860;DHT22;34679;51.436;-2.518;2024-03-23T17:35:45;10.10;99.40
48860;DHT22;34679;51.436;-2.518;2024-03-23T17:38:11;10.10;99.70
48860;DHT22;34679;51.436;-2.518;2024-03-23T17:40:37;10.10;99.40
48860;DHT22;34679;51.436;-2.518;2024-03-23T17:43:02;10.00;99.40
48860;DHT22;34679;51.436;-2.518;2024-03-23T17:45:28;10.00;99.80
48860;DHT22;34679;51.436;-2.518;2024-03-23T17:47:54;10.00;99.90
48860;DHT22;34679;51.436;-2.518;2024-03-23T17:50:22;10.00;99.90
48860;DHT22;34679;51.436;-2.518;2024-03-23T17:52:48;9.90;99.70
48860;DHT22;34679;51.436;-2.518;2024-03-23T17:55:14;9.90;99.90
48860;DHT22;34679;51.436;-2.518;2024-03-23T17:57:40;9.80;99.90
48860;DHT22;34679;51.436;-2.518;2024-03-23T18:00:06;9.80;99.90
48860;DHT22;34679;51.436;-2.518;2024-03-23T18:02:33;9.80;99.90
48860;DHT22;34679;51.436;-2.518;2024-03-23T18:04:59;9.80;99.90
48860;DHT22;34679;51.436;-2.518;2024-03-23T18:07:25;9.70;99.90
48860;DHT22;34679;51.436;-2.518;2024-03-23T18:09:51;9.60;99.90
48860;DHT22;34679;51.436;-2.518;2024-03-23T18:12:17;9.50;99.90
48860;DHT22;34679;51.436;-2.518;2024-03-23T18:14:43;9.50;99.90
48860;DHT22;34679;51.436;-2.518;2024-03-23T18:17:09;9.40;99.90
48860;DHT22;34679;51.436;-2.518;2024-03-23T18:19:35;9.40;99.90
48860;DHT22;34679;51.436;-2.518;2024-03-23T18:22:01;9.30;99.90
48860;DHT22;34679;51.436;-2.518;2024-03-23T18:24:26;9.30;99.90
48860;DHT22;34679;51.436;-2.518;2024-03-23T18:26:52;9.20;99.90
48860;DHT22;34679;51.436;-2.518;2024-03-23T18:29:19;9.10;99.90
48860;DHT22;34679;51.436;-2.518;2024-03-23T18:31:45;9.00;99.90
48860;DHT22;34679;51.436;-2.518;2024-03-23T18:34:10;8.90;99.90
48860;DHT22;34679;51.436;-2.518;2024-03-23T18:36:36;8.80;99.90
48860;DHT22;34679;51.436;-2.518;2024-03-23T18:39:02;8.80;99.90
48860;DHT22;34679;51.436;-2.518;2024-03-23T18:41:29;8.80;99.90
48860;DHT22;34679;51.436;-2.518;2024-03-23T18:43:56;8.70;99.90
48860;DHT22;34679;51.436;-2.518;2024-03-23T18:46:22;8.70;99.90
48860;DHT22;34679;51.436;-2.518;2024-03-23T18:48:47;8.70;99.90
48860;DHT22;34679;51.436;-2.518;2024-03-23T18:51:13;8.70;99.90
48860;DHT22;34679;51.436;-2.518;2024-03-23T18:53:39;8.70;99.90
48860;DHT22;34679;51.436;-2.518;2024-03-23T18:56:04;8.70;99.90
48860;DHT22;34679;51.436;-2.518;2024-03-23T18:58:30;8.60;99.90
48860;DHT22;34679;51.436;-2.518;2024-03-23T19:01:01;8.50;99.90
48860;DHT22;34679;51.436;-2.518;2024-03-23T19:03:28;8.40;99.90
48860;DHT22;34679;51.436;-2.518;2024-03-23T19:05:55;8.30;99.90
48860;DHT22;34679;51.436;-2.518;2024-03-23T19:08:21;8.30;99.90
48860;DHT22;34679;51.436;-2.518;2024-03-23T19:11:07;8.20;99.90
48860;DHT22;34679;51.436;-2.518;2024-03-23T19:13:34;8.10;99.90
48860;DHT22;34679;51.436;-2.518;2024-03-23T19:16:01;8.10;99.90
48860;DHT22;34679;51.436;-2.518;2024-03-23T19:18:26;8.10;99.90
48860;DHT22;34679;51.436;-2.518;2024-03-23T19:20:53;8.10;99.90
48860;DHT22;34679;51.436;-2.518;2024-03-23T19:23:19;8.10;99.90
48860;DHT22;34679;51.436;-2.518;2024-03-23T19:25:55;8.10;99.90
48860;DHT22;34679;51.436;-2.518;2024-03-23T19:28:21;8.10;99.90
48860;DHT22;34679;51.436;-2.518;2024-03-23T19:30:50;8.00;99.90
48860;DHT22;34679;51.436;-2.518;2024-03-23T19:33:17;8.10;99.90
48860;DHT22;34679;51.436;-2.518;2024-03-23T19:35:43;8.10;99.90
48860;DHT22;34679;51.436;-2.518;2024-03-23T19:38:09;8.10;99.90
48860;DHT22;34679;51.436;-2.518;2024-03-23T19:40:35;8.10;99.90
48860;DHT22;34679;51.436;-2.518;2024-03-23T19:43:01;8.10;99.90
48860;DHT22;34679;51.436;-2.518;2024-03-23T19:45:26;8.10;99.90
48860;DHT22;34679;51.436;-2.518;2024-03-23T19:47:52;8.20;99.90
48860;DHT22;34679;51.436;-2.518;2024-03-23T19:50:18;8.20;99.90
48860;DHT22;34679;51.436;-2.518;2024-03-23T19:52:45;8.10;99.90
48860;DHT22;34679;51.436;-2.518;2024-03-23T19:55:13;8.10;99.90
48860;DHT22;34679;51.436;-2.518;2024-03-23T19:57:39;8.00;99.90
48860;DHT22;34679;51.436;-2.518;2024-03-23T20:00:05;7.90;99.90
48860;DHT22;34679;51.436;-2.518;2024-03-23T20:02:32;7.90;99.90
48860;DHT22;34679;51.436;-2.518;2024-03-23T20:04:58;7.80;99.90
48860;DHT22;34679;51.436;-2.518;2024-03-23T20:07:25;7.80;99.90
48860;DHT22;34679;51.436;-2.518;2024-03-23T20:09:51;7.70;99.90
48860;DHT22;34679;51.436;-2.518;2024-03-23T20:12:17;7.70;99.90
48860;DHT22;34679;51.436;-2.518;2024-03-23T20:14:43;7.70;99.90
48860;DHT22;34679;51.436;-2.518;2024-03-23T20:17:10;7.70;99.90
48860;DHT22;34679;51.436;-2.518;2024-03-23T20:19:36;7.60;99.90
48860;DHT22;34679;51.436;-2.518;2024-03-23T20:22:02;7.50;99.90
48860;DHT22;34679;51.436;-2.518;2024-03-23T20:24:28;7.40;99.90
48860;DHT22;34679;51.436;-2.518;2024-03-23T20:26:54;7.30;99.90
48860;DHT22;34679;51.436;-2.518;2024-03-23T20:29:20;7.30;99.90
48860;DHT22;34679;51.436;-2.518;2024-03-23T20:31:46;7.30;99.90
48860;DHT22;34679;51.436;-2.518;2024-03-23T20:34:12;7.20;99.90
48860;DHT22;34679;51.436;-2.518;2024-03-23T20:36:37;7.30;99.90
48860;DHT22;34679;51.436;-2.518;2024-03-23T20:39:03;7.30;99.90
48860;DHT22;34679;51.436;-2.518;2024-03-23T20:41:30;7.30;99.90
48860;DHT22;34679;51.436;-2.518;2024-03-23T20:43:57;7.30;99.90
48860;DHT22;34679;51.436;-2.518;2024-03-23T20:46:22;7.20;99.90
48860;DHT22;34679;51.436;-2.518;2024-03-23T20:48:49;7.20;99.90
48860;DHT22;34679;51.436;-2.518;2024-03-23T20:51:16;7.20;99.90
48860;DHT22;34679;51.436;-2.518;2024-03-23T20:53:42;7.10;99.90
48860;DHT22;34679;51.436;-2.518;2024-03-23T20:56:08;7.10;99.90
48860;DHT22;34679;51.436;-2.518;2024-03-23T20:58:34;7.10;99.90
48860;DHT22;34679;51.436;-2.518;2024-03-23T21:01:01;7.10;99.90
48860;DHT22;34679;51.436;-2.518;2024-03-23T21:03:28;7.20;99.90
48860;DHT22;34679;51.436;-2.518;2024-03-23T21:05:54;7.10;99.90
48860;DHT22;34679;51.436;-2.518;2024-03-23T21:08:20;7.10;99.90
48860;DHT22;34679;51.436;-2.518;2024-03-23T21:10:50;7.00;99.90